Kbely Air Base

Jump to: basic info | weather | frequencies | runways | comments

Related pages: nearby airports | nearby navaids | notams | map

Basic information (top)

Codes: LKKB
Location: lon 50.121399, lat 14.543600, elev 939 ft / 286 m msl
Status: medium_airport

Weather (top)

Current conditions (rec'd 2014/04/19 01:00Z):

LKKB 190100Z 32003KT 7000 NSC 03/03 Q1014

Airport forecast (rec'd 2014/04/15 12:00Z):

TAF LKKB 151100Z 1512/1612 30012KT 9999 BKN030 
      TEMPO 1512/1518 33014G24KT 8000 SHRA FEW017TCU BKN025 PROB30 
      TEMPO 1520/1607 5000 SHRA BKN015

Frequencies (top)

Verify before use: may be inaccurate or out of date.

APP: 124.675 MHz (APP)
GCA: 123.3 MHz (PRECISION)
TWR: 120.875 MHz (TWR)

Runways (top)

06/24: 6,562 x 148 ft (2,000 x 45 m) — paved — lighted

Latest comments (top)

No comments yet for Kbely Air Base

More... (top)

See also NOTAMs and nearby airports and navaids, or visit the Kbely Air Base page at the main OurAirports website..